Chipley, Florida
Current Conditions -  °F | °C
As of 5:53 AM on Monday 22 Dec 2014 (Local Time) from KMAI Reporting Station
Light Rain Light Rain  
Wind Chill: 52°   Ceiling: 400
Heat Index: 52°   Visibility: 10mi
Dew Point: 52°   Wind: 6mph
Humidity: 100%   Direction: 30°NNE
Pressure: 29.98"   Gusts: NA
Location:  30.78°N, 85.54°W
Report Text: KMAI 221153Z AUTO 03005KT 10SM -RA OVC004 11/11 A2998 RMK AO2 LTG DSNT E SLP151 P0002 60005 70006 T01110111 10117 20111 53001 $
Loading
Personal Weather Stations






























Interactive Weather Map New forecast layout! Learn more

10-Day Weather Forecast

Advertisements
Track Severe Weather on mobile